Terminal Aerodrome Forecast
Issued by NWS

Home | Current Version | Previous Version | Text Only | Print | Product List | Glossary On
Versions: 1 2 3 4 5 6 7 8 9 10 11 12 13 14 15 16 17 18 19 20 21 22 23 24 25 26 27
880
FTUS41 KPHI 102338
TAFPNE
TAF
KPNE 102338Z 1100/1124 28010KT P6SM BKN045
      TEMPO 1104/1107 4SM -SHSN OVC030
     FM110900 28010KT P6SM SCT045
     FM111400 28016G28KT P6SM BKN045
     FM112300 29012G22KT P6SM SCT045=

USA.gov is the U.S. government's official web portal to all federal, state and local government web resources and services.